| Date | Time | Temp. (oF) | Dew Point (oF) | Rel. Hum. (%) | Press. (in.) | Wind Dir. | Wind Speed (mph) | Hourly Rainfall (in.) |
|
|---|---|---|---|---|---|---|---|---|---|
| 1 | 06/18 | 00:00 | 61 | 48 | 63 | 29.82 | WSW | 2 | 0.00 |
| 2 | 06/17 | 23:00 | 60 | 49 | 68 | 29.82 | WNW | 2 | 0.00 |
| 3 | 06/17 | 22:00 | 64 | 48 | 58 | 29.82 | NNW | 1 | 0.00 |
| 4 | 06/17 | 21:00 | 67 | 48 | 51 | 29.81 | N | 4 | 0.00 |
| 5 | 06/17 | 20:00 | 70 | 46 | 44 | 29.79 | W | 10 | 0.00 |
| 6 | 06/17 | 19:00 | 71 | 47 | 44 | 29.78 | NNW | 3 | 0.00 |
| 7 | 06/17 | 18:00 | 72 | 48 | 43 | 29.77 | W | 7 | 0.00 |
| 8 | 06/17 | 17:00 | 73 | 48 | 42 | 29.75 | WNW | 4 | 0.00 |
| 9 | 06/17 | 16:00 | 73 | 51 | 47 | 29.77 | WNW | 3 | 0.00 |
| 10 | 06/17 | 15:00 | 72 | 50 | 47 | 29.78 | NW | 5 | 0.00 |
| 11 | 06/17 | 14:00 | 73 | 52 | 49 | 29.77 | NNW | 7 | 0.00 |
| 12 | 06/17 | 13:00 | 74 | 50 | 44 | 29.77 | NNW | 10 | 0.00 |
| 13 | 06/17 | 12:00 | 74 | 57 | 56 | 29.78 | WNW | 14 | 0.00 |
| 14 | 06/17 | 11:00 | 74 | 57 | 56 | 29.78 | WNW | 9 | 0.00 |
| 15 | 06/17 | 10:00 | 71 | 56 | 61 | 29.78 | W | 4 | 0.00 |
| 16 | 06/17 | 09:00 | 69 | 57 | 68 | 29.78 | W | 5 | 0.00 |
| 17 | 06/17 | 08:00 | 65 | 62 | 91 | 29.78 | NW | 1 | 0.00 |
| 18 | 06/17 | 07:00 | 61 | 60 | 99 | 29.77 | WSW | 0 | 0.00 |
| 19 | 06/17 | 06:00 | 57 | 56 | 98 | 29.76 | SW | 0 | 0.00 |
| 20 | 06/17 | 05:00 | 58 | 57 | 97 | 29.76 | W | 0 | 0.00 |
| 21 | 06/17 | 04:00 | 58 | 56 | 95 | 29.76 | SSW | 0 | 0.00 |
| 22 | 06/17 | 03:00 | 60 | 56 | 89 | 29.75 | WNW | 0 | 0.00 |
| 23 | 06/17 | 02:00 | 61 | 56 | 86 | 29.75 | SSW | 0 | 0.00 |
| 24 | 06/17 | 01:00 | 64 | 56 | 77 | 29.79 | SSE | 2 | 0.00 |